createdAt,value
2022-11-23T00:01:37.904Z,19.05
2022-11-23T00:04:13.468Z,13.32
2022-11-23T00:06:41.157Z,15.50
2022-11-23T00:09:10.893Z,10.13
2022-11-23T00:11:38.240Z,10.57
2022-11-23T00:14:05.723Z,12.88
2022-11-23T00:19:18.076Z,15.85
2022-11-23T00:21:45.228Z,12.88
2022-11-23T00:24:13.360Z,10.05
2022-11-23T00:26:40.536Z,12.55
2022-11-23T00:29:07.842Z,18.85
2022-11-23T00:31:35.104Z,10.95
2022-11-23T00:34:02.933Z,12.23
2022-11-23T00:36:32.695Z,10.85
2022-11-23T00:39:00.655Z,10.80
2022-11-23T00:41:28.846Z,15.85
2022-11-23T00:43:56.216Z,11.82
2022-11-23T00:46:28.277Z,10.05
2022-11-23T00:48:57.673Z,16.67
2022-11-23T00:51:36.694Z,12.50
2022-11-23T00:54:06.264Z,8.55
2022-11-23T00:56:35.831Z,10.52
2022-11-23T00:59:04.813Z,10.68
2022-11-23T01:01:37.232Z,15.25
2022-11-23T01:04:08.403Z,10.90
2022-11-23T01:06:40.226Z,10.60
2022-11-23T01:09:19.835Z,10.60
2022-11-23T01:11:50.072Z,9.65
2022-11-23T01:14:17.431Z,10.32
2022-11-23T01:16:45.040Z,7.75
2022-11-23T01:19:19.990Z,8.23
2022-11-23T01:21:50.401Z,11.15
2022-11-23T01:24:22.482Z,9.00
2022-11-23T01:26:56.241Z,10.25
2022-11-23T01:29:25.056Z,12.80
2022-11-23T01:31:52.350Z,11.10
2022-11-23T01:34:19.555Z,8.57
2022-11-23T01:36:47.198Z,7.53
2022-11-23T01:39:14.916Z,17.58
2022-11-23T01:41:45.595Z,7.82
2022-11-23T01:44:34.610Z,7.72
2022-11-23T01:47:08.674Z,12.30
2022-11-23T01:49:52.982Z,9.10
2022-11-23T01:52:26.755Z,11.93
2022-11-23T01:55:01.533Z,8.77
2022-11-23T01:57:43.916Z,6.18
2022-11-23T02:00:15.039Z,7.53
2022-11-23T02:02:57.516Z,11.07
2022-11-23T02:05:40.260Z,9.35
2022-11-23T02:08:09.268Z,12.20
2022-11-23T02:10:40.216Z,10.82
2022-11-23T02:13:13.969Z,8.57
2022-11-23T02:15:41.346Z,15.98
2022-11-23T02:18:21.025Z,9.02
2022-11-23T02:20:50.828Z,17.48
2022-11-23T02:24:06.347Z,8.85
2022-11-23T02:26:37.687Z,7.20
2022-11-23T02:29:23.978Z,10.52
2022-11-23T02:31:55.353Z,12.80
2022-11-23T02:34:24.920Z,8.68
2022-11-23T02:36:57.370Z,8.15
2022-11-23T02:39:37.244Z,8.07
2022-11-23T02:42:06.000Z,11.32
2022-11-23T02:44:48.414Z,17.30
2022-11-23T02:47:16.019Z,8.32
2022-11-23T02:49:48.360Z,12.13
2022-11-23T02:52:17.809Z,22.00
2022-11-23T02:54:45.157Z,15.05
2022-11-23T02:57:13.589Z,10.63
2022-11-23T02:59:45.009Z,7.53
2022-11-23T03:02:12.436Z,8.55
2022-11-23T03:04:39.642Z,8.85
2022-11-23T03:07:07.024Z,11.98
2022-11-23T03:09:34.939Z,7.35
2022-11-23T03:12:03.052Z,11.15
2022-11-23T03:14:30.294Z,9.73
2022-11-23T03:17:01.243Z,9.02
2022-11-23T03:19:33.265Z,9.68
2022-11-23T03:22:01.744Z,8.77
2022-11-23T03:24:31.938Z,15.55
2022-11-23T03:27:01.404Z,8.95
2022-11-23T03:29:29.365Z,9.98
2022-11-23T03:31:59.109Z,7.63
2022-11-23T03:34:26.406Z,8.25
2022-11-23T03:36:56.813Z,11.52
2022-11-23T03:39:25.118Z,8.45
2022-11-23T03:42:10.665Z,9.65
2022-11-23T03:44:41.325Z,12.65
2022-11-23T03:47:12.084Z,8.82
2022-11-23T03:49:39.280Z,10.50
2022-11-23T03:52:06.448Z,9.77
2022-11-23T03:54:33.663Z,13.50
2022-11-23T03:57:04.020Z,10.23
2022-11-23T03:59:32.878Z,12.55
2022-11-23T04:02:00.629Z,12.27
2022-11-23T04:04:32.604Z,19.10
2022-11-23T04:07:09.847Z,6.90
2022-11-23T04:09:41.805Z,9.40
2022-11-23T04:12:25.584Z,12.18
2022-11-23T04:14:53.023Z,12.85
2022-11-23T04:17:20.456Z,13.98
2022-11-23T04:19:50.905Z,14.70
2022-11-23T04:22:18.282Z,9.60
2022-11-23T04:24:45.543Z,10.23
2022-11-23T04:27:13.331Z,13.95
2022-11-23T04:29:44.479Z,14.63
2022-11-23T04:32:14.737Z,10.60
2022-11-23T04:34:42.696Z,17.95
2022-11-23T04:37:13.632Z,14.55
2022-11-23T04:39:42.629Z,19.10
2022-11-23T04:42:20.769Z,10.55
2022-11-23T04:44:53.036Z,12.65
2022-11-23T04:47:20.853Z,9.88
2022-11-23T04:49:48.805Z,9.45
2022-11-23T04:52:16.712Z,9.70
2022-11-23T04:54:48.010Z,10.82
2022-11-23T04:57:15.440Z,15.30
2022-11-23T04:59:44.162Z,16.00
2022-11-23T05:02:11.445Z,14.60
2022-11-23T05:04:49.411Z,14.02
2022-11-23T05:07:18.256Z,14.52
2022-11-23T05:09:52.224Z,10.38
2022-11-23T05:12:21.667Z,17.15
2022-11-23T05:14:48.827Z,9.45
2022-11-23T05:17:21.792Z,8.43
2022-11-23T05:19:52.289Z,9.48
2022-11-23T05:22:20.631Z,12.63
2022-11-23T05:24:47.933Z,12.20
2022-11-23T05:27:22.219Z,7.75
2022-11-23T05:29:50.197Z,13.82
2022-11-23T05:32:17.730Z,11.65
2022-11-23T05:34:45.171Z,14.77
2022-11-23T05:37:15.102Z,11.48
2022-11-23T05:40:00.597Z,9.80
2022-11-23T05:42:28.220Z,16.95
2022-11-23T05:44:59.530Z,13.70
2022-11-23T05:47:35.550Z,15.40
2022-11-23T05:50:07.493Z,16.70
2022-11-23T05:52:36.610Z,11.93
2022-11-23T05:55:04.443Z,13.70
2022-11-23T05:57:31.609Z,23.27
2022-11-23T05:59:59.070Z,15.98
2022-11-23T06:02:41.351Z,14.25
2022-11-23T06:05:11.458Z,14.82
2022-11-23T06:07:54.000Z,12.98
2022-11-23T06:10:27.191Z,19.15
2022-11-23T06:13:02.215Z,11.88
2022-11-23T06:15:29.516Z,14.93
2022-11-23T06:18:01.965Z,13.77
2022-11-23T06:20:40.011Z,12.35
2022-11-23T06:23:10.026Z,14.05
2022-11-23T06:25:43.220Z,14.48
2022-11-23T06:28:15.928Z,18.25
2022-11-23T06:30:46.605Z,10.98
2022-11-23T06:33:14.601Z,12.15
2022-11-23T06:36:01.322Z,13.45
2022-11-23T06:38:34.297Z,13.25
2022-11-23T06:41:05.191Z,11.48
2022-11-23T06:43:32.552Z,19.45
2022-11-23T06:46:07.655Z,12.63
2022-11-23T06:48:39.279Z,18.80
2022-11-23T06:51:07.648Z,10.48
2022-11-23T06:53:36.819Z,12.63
2022-11-23T06:56:08.050Z,9.27
2022-11-23T06:58:36.898Z,12.25
2022-11-23T07:01:11.005Z,13.60
2022-11-23T07:03:44.537Z,10.25
2022-11-23T07:06:41.516Z,12.85
2022-11-23T07:09:16.343Z,13.55
2022-11-23T07:12:00.215Z,12.50
2022-11-23T07:14:27.504Z,14.65
2022-11-23T07:16:56.180Z,12.23
2022-11-23T07:19:23.588Z,24.55
2022-11-23T07:21:52.287Z,13.00
2022-11-23T07:24:19.503Z,9.13
2022-11-23T07:26:47.020Z,9.55
2022-11-23T07:29:18.091Z,13.07
2022-11-23T07:31:46.222Z,11.98
2022-11-23T07:34:14.609Z,9.20
2022-11-23T07:36:43.155Z,12.95
2022-11-23T07:39:11.553Z,21.30
2022-11-23T07:41:38.741Z,11.30
2022-11-23T07:44:11.996Z,12.75
2022-11-23T07:46:39.205Z,14.23
2022-11-23T07:49:06.765Z,14.23
2022-11-23T07:51:34.132Z,11.63
2022-11-23T07:54:01.337Z,13.05
2022-11-23T07:56:28.546Z,11.50
2022-11-23T07:58:55.700Z,7.85
2022-11-23T08:01:22.873Z,13.13
2022-11-23T08:03:50.156Z,13.55
2022-11-23T08:06:17.884Z,8.80
2022-11-23T08:08:45.189Z,9.05
2022-11-23T08:11:14.842Z,9.07
2022-11-23T08:13:42.056Z,13.05
2022-11-23T08:16:09.509Z,10.93
2022-11-23T08:18:37.231Z,13.75
2022-11-23T08:21:04.993Z,11.68
2022-11-23T08:23:32.343Z,7.35
2022-11-23T08:25:59.488Z,10.90
2022-11-23T08:28:26.936Z,10.43
2022-11-23T08:30:54.139Z,12.45
2022-11-23T08:33:21.447Z,9.48
2022-11-23T08:35:48.639Z,12.07
2022-11-23T08:38:15.791Z,11.38
2022-11-23T08:40:43.071Z,10.68
2022-11-23T08:43:10.350Z,9.43
2022-11-23T08:45:37.568Z,15.55
2022-11-23T08:48:05.859Z,16.00
2022-11-23T08:50:37.198Z,13.57
2022-11-23T08:53:05.738Z,10.80
2022-11-23T08:55:33.567Z,10.15
2022-11-23T08:58:01.164Z,11.20
2022-11-23T09:00:29.751Z,9.57
2022-11-23T09:03:00.132Z,7.75
2022-11-23T09:05:29.453Z,13.65
2022-11-23T09:08:01.090Z,10.35
2022-11-23T09:10:29.015Z,9.68
2022-11-23T09:12:56.400Z,10.63
2022-11-23T09:15:24.136Z,11.68
2022-11-23T09:17:51.966Z,10.80
2022-11-23T09:20:19.300Z,11.40
2022-11-23T09:22:53.201Z,9.05
2022-11-23T09:25:23.479Z,9.55
2022-11-23T09:28:04.418Z,11.02
2022-11-23T09:30:31.561Z,9.88
2022-11-23T09:32:58.883Z,11.80
2022-11-23T09:35:26.617Z,10.80
2022-11-23T09:37:59.292Z,10.40
2022-11-23T09:40:38.980Z,12.77
2022-11-23T09:43:45.027Z,10.65
2022-11-23T09:46:45.361Z,11.55
2022-11-23T09:49:33.530Z,10.48
2022-11-23T09:52:03.108Z,12.40
2022-11-23T09:54:39.940Z,9.30
2022-11-23T09:57:07.447Z,10.93
2022-11-23T09:59:47.400Z,11.00
2022-11-23T10:02:28.849Z,13.95
2022-11-23T10:05:00.483Z,10.95
2022-11-23T10:08:17.964Z,9.48
2022-11-23T10:10:57.109Z,10.65
2022-11-23T10:13:44.803Z,9.52
2022-11-23T10:19:53.321Z,9.80
2022-11-23T10:22:31.020Z,9.13
2022-11-23T10:25:08.573Z,13.02
2022-11-23T10:27:38.246Z,6.90
2022-11-23T10:30:14.544Z,7.55
2022-11-23T10:33:00.723Z,12.02
2022-11-23T10:35:35.273Z,7.78
2022-11-23T10:38:26.601Z,15.85
2022-11-23T10:41:16.609Z,9.55
2022-11-23T10:44:09.408Z,8.20
2022-11-23T10:46:37.411Z,9.02
2022-11-23T10:49:26.266Z,7.57
2022-11-23T10:52:28.048Z,12.73
2022-11-23T10:55:00.475Z,8.57
2022-11-23T10:57:43.149Z,9.43
2022-11-23T11:00:13.581Z,5.95
2022-11-23T11:02:48.609Z,14.32
2022-11-23T11:08:24.045Z,7.75
2022-11-23T11:11:21.532Z,7.00
2022-11-23T11:13:49.539Z,6.00
2022-11-23T11:16:33.027Z,7.18
2022-11-23T11:19:21.197Z,4.93
2022-11-23T11:21:48.894Z,10.38
2022-11-23T11:24:28.739Z,6.90
2022-11-23T11:27:04.688Z,11.13
2022-11-23T11:29:50.277Z,6.22
2022-11-23T11:32:39.889Z,6.10
2022-11-23T11:35:25.238Z,7.00
2022-11-23T11:38:21.020Z,8.40
2022-11-23T11:40:53.011Z,6.95
2022-11-23T11:43:40.557Z,8.40
2022-11-23T11:46:39.356Z,8.58
2022-11-23T11:49:21.903Z,8.30
2022-11-23T11:52:19.214Z,11.05
2022-11-23T11:55:46.352Z,7.78
2022-11-23T11:58:17.687Z,7.43
2022-11-23T12:00:48.936Z,7.22
2022-11-23T12:03:45.149Z,5.28
2022-11-23T12:06:32.407Z,6.60
2022-11-23T12:09:31.156Z,7.95
2022-11-23T12:11:59.372Z,6.57
2022-11-23T12:14:27.152Z,6.95
2022-11-23T12:17:32.791Z,5.70
2022-11-23T12:20:40.878Z,5.20
2022-11-23T12:23:36.502Z,4.05
2022-11-23T12:27:06.892Z,4.32
2022-11-23T12:29:59.914Z,3.47
2022-11-23T12:33:10.148Z,6.32
2022-11-23T12:36:14.945Z,8.57
2022-11-23T12:39:25.840Z,3.72
2022-11-23T12:42:24.775Z,5.85
2022-11-23T12:45:16.705Z,7.35
2022-11-23T12:48:27.127Z,3.15
2022-11-23T12:51:23.433Z,3.40
2022-11-23T12:54:56.484Z,3.85
2022-11-23T12:57:46.744Z,4.50
2022-11-23T13:00:20.589Z,4.20
2022-11-23T13:02:56.495Z,9.02
2022-11-23T13:06:07.133Z,2.85
2022-11-23T13:09:10.721Z,4.30
2022-11-23T13:12:08.736Z,5.15
2022-11-23T13:15:29.343Z,4.20
2022-11-23T13:18:26.615Z,3.63
2022-11-23T13:21:36.218Z,3.53
2022-11-23T13:24:04.392Z,6.20
2022-11-23T13:26:31.760Z,7.22
2022-11-23T13:29:01.426Z,5.40
2022-11-23T13:31:35.860Z,9.25
2022-11-23T13:34:44.317Z,4.10
2022-11-23T13:37:12.998Z,5.20
2022-11-23T13:39:58.787Z,4.22
2022-11-23T13:42:27.991Z,4.47
2022-11-23T13:45:20.623Z,5.90
2022-11-23T13:51:05.941Z,5.50
2022-11-23T13:53:50.840Z,4.95
2022-11-23T13:56:41.164Z,5.97
2022-11-23T13:59:23.653Z,3.75
2022-11-23T14:02:09.318Z,5.43
2022-11-23T14:04:40.723Z,4.47
2022-11-23T14:07:25.969Z,5.97
2022-11-23T14:10:15.714Z,4.90
2022-11-23T14:13:12.290Z,4.13
2022-11-23T14:15:44.872Z,5.80
2022-11-23T14:18:47.961Z,6.07
2022-11-23T14:22:10.127Z,5.93
2022-11-23T14:25:43.316Z,7.00
2022-11-23T14:28:52.367Z,7.15
2022-11-23T14:32:26.374Z,3.67
2022-11-23T14:35:33.203Z,4.47
2022-11-23T14:38:50.575Z,5.57
2022-11-23T14:41:26.235Z,8.13
2022-11-23T14:43:55.535Z,10.80
2022-11-23T14:46:25.652Z,6.35
2022-11-23T14:49:12.895Z,9.70
2022-11-23T14:51:45.137Z,7.68
2022-11-23T14:54:16.695Z,5.80
2022-11-23T14:56:51.877Z,6.88
2022-11-23T14:59:28.463Z,6.68
2022-11-23T15:02:40.122Z,6.15
2022-11-23T15:05:34.394Z,11.35
2022-11-23T15:08:32.041Z,16.77
2022-11-23T15:11:25.646Z,6.22
2022-11-23T15:13:55.732Z,6.15
2022-11-23T15:16:23.294Z,8.32
2022-11-23T15:18:50.518Z,7.82
2022-11-23T15:21:28.249Z,10.55
2022-11-23T15:23:58.287Z,4.80
2022-11-23T15:29:38.368Z,7.50
2022-11-23T15:32:33.334Z,7.28
2022-11-23T15:35:14.081Z,5.10
2022-11-23T15:37:50.651Z,7.75
2022-11-23T15:40:20.101Z,7.22
2022-11-23T15:42:51.280Z,7.25
2022-11-23T15:45:44.349Z,7.00
2022-11-23T15:48:20.514Z,6.18
2022-11-23T15:50:53.879Z,8.13
2022-11-23T15:53:52.176Z,8.20
2022-11-23T15:56:34.979Z,6.25
2022-11-23T15:59:45.461Z,5.53
2022-11-23T16:02:28.774Z,9.25
2022-11-23T16:05:24.015Z,5.88
2022-11-23T16:07:59.887Z,7.53
2022-11-23T16:10:35.104Z,8.05
2022-11-23T16:13:06.174Z,3.85
2022-11-23T16:15:41.459Z,11.02
2022-11-23T16:18:17.111Z,7.82
2022-11-23T16:20:49.193Z,5.70
2022-11-23T16:23:23.952Z,8.20
2022-11-23T16:26:05.773Z,8.23
2022-11-23T16:28:47.762Z,7.35
2022-11-23T16:31:31.025Z,9.38
2022-11-23T16:33:58.225Z,9.38
2022-11-23T16:36:28.372Z,5.05
2022-11-23T16:39:03.991Z,5.20
2022-11-23T16:41:33.114Z,6.15
2022-11-23T16:44:00.366Z,6.40
2022-11-23T16:46:27.596Z,5.40
2022-11-23T16:48:57.393Z,8.07
2022-11-23T16:51:25.051Z,14.88
2022-11-23T16:56:41.259Z,6.10
2022-11-23T16:59:18.401Z,7.18
2022-11-23T17:01:56.586Z,3.80
2022-11-23T17:04:25.669Z,3.80
2022-11-23T17:06:53.017Z,6.03
2022-11-23T17:09:20.627Z,4.85
2022-11-23T17:11:50.821Z,5.32
2022-11-23T17:14:29.977Z,6.53
2022-11-23T17:16:57.529Z,4.60
2022-11-23T17:19:28.364Z,4.68
2022-11-23T17:21:55.582Z,4.43
2022-11-23T17:24:23.069Z,7.22
2022-11-23T17:26:53.919Z,3.92
2022-11-23T17:29:21.785Z,6.93
2022-11-23T17:31:51.008Z,5.82
2022-11-23T17:34:18.553Z,5.13
2022-11-23T17:36:50.879Z,5.32
2022-11-23T17:39:24.675Z,5.47
2022-11-23T17:41:52.049Z,6.35
2022-11-23T17:44:19.265Z,5.03
2022-11-23T17:46:48.932Z,5.93
2022-11-23T17:49:27.506Z,7.35
2022-11-23T17:51:55.945Z,7.35
2022-11-23T17:54:24.222Z,5.10
2022-11-23T17:56:51.948Z,6.10
2022-11-23T17:59:19.568Z,5.65
2022-11-23T18:01:46.874Z,5.80
2022-11-23T18:04:14.074Z,5.35
2022-11-23T18:06:41.282Z,6.88
2022-11-23T18:09:11.812Z,7.13
2022-11-23T18:11:39.033Z,6.20
2022-11-23T18:14:06.238Z,10.45
2022-11-23T18:16:33.419Z,9.68
2022-11-23T18:19:00.605Z,8.25
2022-11-23T18:21:27.777Z,7.00
2022-11-23T18:23:57.899Z,8.05
2022-11-23T18:26:28.176Z,7.22
2022-11-23T18:28:57.644Z,8.45
2022-11-23T18:31:24.936Z,5.65
2022-11-23T18:33:52.200Z,9.00
2022-11-23T18:36:19.787Z,9.02
2022-11-23T18:38:47.605Z,10.80
2022-11-23T18:41:16.867Z,7.57
2022-11-23T18:43:46.048Z,8.60
2022-11-23T18:46:19.389Z,7.57
2022-11-23T18:48:49.505Z,9.25
2022-11-23T18:51:18.468Z,10.85
2022-11-23T18:53:47.793Z,13.32
2022-11-23T18:56:15.305Z,9.40
2022-11-23T18:58:45.736Z,10.60
2022-11-23T19:01:17.773Z,7.85
2022-11-23T19:03:48.241Z,9.57
2022-11-23T19:06:19.367Z,8.63
2022-11-23T19:08:59.706Z,12.15
2022-11-23T19:11:28.594Z,7.70
2022-11-23T19:14:01.307Z,20.60
2022-11-23T19:16:32.624Z,7.50
2022-11-23T19:19:06.823Z,10.32
2022-11-23T19:21:36.553Z,9.38
2022-11-23T19:24:06.260Z,10.00
2022-11-23T19:26:33.537Z,14.13
2022-11-23T19:29:00.903Z,10.43
2022-11-23T19:31:32.968Z,8.80
2022-11-23T19:34:06.144Z,10.45
2022-11-23T19:36:38.408Z,9.45
2022-11-23T19:39:08.374Z,12.30
2022-11-23T19:41:35.653Z,11.18
2022-11-23T19:44:02.992Z,10.93
2022-11-23T19:46:31.941Z,9.25
2022-11-23T19:49:00.011Z,8.32
2022-11-23T19:51:28.265Z,17.70
2022-11-23T19:54:00.932Z,9.85
2022-11-23T19:56:30.053Z,9.07
2022-11-23T19:59:01.595Z,7.22
2022-11-23T20:01:32.520Z,14.43
2022-11-23T20:04:08.753Z,11.15
2022-11-23T20:06:42.280Z,10.88
2022-11-23T20:09:19.371Z,15.65
2022-11-23T20:11:50.625Z,13.82
2022-11-23T20:14:18.752Z,17.33
2022-11-23T20:16:47.589Z,11.30
2022-11-23T20:19:14.896Z,17.90
2022-11-23T20:21:42.090Z,19.00
2022-11-23T20:24:13.839Z,14.95
2022-11-23T20:26:42.855Z,22.23
2022-11-23T20:29:11.199Z,13.32
2022-11-23T20:31:39.205Z,11.18
2022-11-23T20:34:08.860Z,16.48
2022-11-23T20:36:38.373Z,14.77
2022-11-23T20:39:10.834Z,13.43
2022-11-23T20:41:39.042Z,11.80
2022-11-23T20:44:14.640Z,15.13
2022-11-23T20:47:01.204Z,17.70
2022-11-23T20:49:30.147Z,15.82
2022-11-23T20:51:58.557Z,17.42
2022-11-23T20:54:25.841Z,16.30
2022-11-23T20:56:53.154Z,15.60
2022-11-23T20:59:20.729Z,15.07
2022-11-23T21:01:48.126Z,12.00
2022-11-23T21:04:15.378Z,17.60
2022-11-23T21:06:44.156Z,17.70
2022-11-23T21:09:12.119Z,12.35
2022-11-23T21:12:11.692Z,17.13
2022-11-23T21:14:39.063Z,17.20
2022-11-23T21:17:06.454Z,14.40
2022-11-23T21:19:39.555Z,13.00
2022-11-23T21:22:13.878Z,18.02
2022-11-23T21:24:42.193Z,15.60
2022-11-23T21:27:13.429Z,19.00
2022-11-23T21:29:40.981Z,13.30
2022-11-23T21:32:14.734Z,16.38
2022-11-23T21:34:42.460Z,12.32
2022-11-23T21:37:12.490Z,16.50
2022-11-23T21:39:41.394Z,11.30
2022-11-23T21:42:08.814Z,20.98
2022-11-23T21:44:36.378Z,13.13
2022-11-23T21:47:03.916Z,16.60
2022-11-23T21:49:31.178Z,16.65
2022-11-23T21:52:00.661Z,13.13
2022-11-23T21:54:28.052Z,15.35
2022-11-23T21:56:55.277Z,15.07
2022-11-23T21:59:23.271Z,21.70
2022-11-23T22:01:50.497Z,16.13
2022-11-23T22:04:17.773Z,17.73
2022-11-23T22:06:45.355Z,16.98
2022-11-23T22:09:13.788Z,17.13
2022-11-23T22:11:43.864Z,20.40
2022-11-23T22:14:18.367Z,20.92
2022-11-23T22:16:50.224Z,16.85
2022-11-23T22:19:18.750Z,19.80
2022-11-23T22:21:46.781Z,17.92
2022-11-23T22:24:20.111Z,13.13
2022-11-23T22:26:48.256Z,17.13
2022-11-23T22:29:15.550Z,20.67
2022-11-23T22:31:43.686Z,18.67
2022-11-23T22:34:13.644Z,12.18
2022-11-23T22:36:42.043Z,15.80
2022-11-23T22:39:10.645Z,17.20
2022-11-23T22:41:38.372Z,17.52
2022-11-23T22:44:10.438Z,13.77
2022-11-23T22:46:38.948Z,14.80
2022-11-23T22:49:06.530Z,26.02
2022-11-23T22:51:33.766Z,12.85
2022-11-23T22:54:02.115Z,18.85
2022-11-23T22:56:31.360Z,22.20
2022-11-23T22:58:59.568Z,16.83
2022-11-23T23:01:30.900Z,17.45
2022-11-23T23:04:02.363Z,15.77
2022-11-23T23:06:36.202Z,16.90
2022-11-23T23:09:07.950Z,16.85
2022-11-23T23:11:36.882Z,13.48
2022-11-23T23:14:04.037Z,16.70
2022-11-23T23:16:31.821Z,19.42
2022-11-23T23:18:59.792Z,14.73
2022-11-23T23:21:29.196Z,17.10
2022-11-23T23:24:01.129Z,23.95
2022-11-23T23:26:29.533Z,13.93
2022-11-23T23:29:00.499Z,18.35
2022-11-23T23:31:29.958Z,18.83
2022-11-23T23:33:59.809Z,23.38
2022-11-23T23:36:26.978Z,16.88
2022-11-23T23:38:54.360Z,14.18
2022-11-23T23:41:22.197Z,20.55
2022-11-23T23:43:49.454Z,16.02
2022-11-23T23:46:17.047Z,18.30
2022-11-23T23:48:44.650Z,22.50
2022-11-23T23:51:23.855Z,11.20
2022-11-23T23:53:52.702Z,13.52
2022-11-23T23:56:28.184Z,15.65
2022-11-23T23:58:58.160Z,19.23
